sensor_id;sensor_type;location;lat;lon;timestamp;P1;durP1;ratioP1;P2;durP2;ratioP2
73524;SDS011;61776;56.194;44.160;2022-10-22T02:57:03;6.80;;;3.40;;
73524;SDS011;61776;56.194;44.160;2022-10-22T02:59:29;10.25;;;3.47;;
73524;SDS011;61776;56.194;44.160;2022-10-22T03:01:55;8.20;;;3.67;;
73524;SDS011;61776;56.194;44.160;2022-10-22T03:04:20;9.53;;;3.80;;
73524;SDS011;61776;56.194;44.160;2022-10-22T03:07:58;7.32;;;3.40;;
73524;SDS011;61776;56.194;44.160;2022-10-22T03:11:33;8.57;;;3.78;;
73524;SDS011;61776;56.194;44.160;2022-10-22T03:14:18;8.82;;;3.40;;
73524;SDS011;61776;56.194;44.160;2022-10-22T03:18:07;7.88;;;3.65;;
73524;SDS011;61776;56.194;44.160;2022-10-22T03:23:45;10.45;;;3.22;;
73524;SDS011;61776;56.194;44.160;2022-10-22T03:26:50;7.03;;;3.25;;
73524;SDS011;61776;56.194;44.160;2022-10-22T03:29:56;8.18;;;3.47;;
73524;SDS011;61776;56.194;44.160;2022-10-22T03:33:33;7.65;;;3.30;;
73524;SDS011;61776;56.194;44.160;2022-10-22T03:37:10;7.97;;;3.10;;
73524;SDS011;61776;56.194;44.160;2022-10-22T03:40:34;7.60;;;3.00;;
73524;SDS011;61776;56.194;44.160;2022-10-22T03:43:01;15.68;;;3.10;;
73524;SDS011;61776;56.194;44.160;2022-10-22T03:45:27;8.00;;;3.20;;
73524;SDS011;61776;56.194;44.160;2022-10-22T03:48:05;8.33;;;3.30;;
73524;SDS011;61776;56.194;44.160;2022-10-22T03:50:31;7.40;;;2.65;;
73524;SDS011;61776;56.194;44.160;2022-10-22T03:52:57;8.23;;;2.88;;
73524;SDS011;61776;56.194;44.160;2022-10-22T03:56:06;7.40;;;3.00;;
73524;SDS011;61776;56.194;44.160;2022-10-22T03:58:39;8.73;;;2.87;;
73524;SDS011;61776;56.194;44.160;2022-10-22T04:01:10;7.85;;;3.03;;
73524;SDS011;61776;56.194;44.160;2022-10-22T04:03:37;8.02;;;2.95;;
73524;SDS011;61776;56.194;44.160;2022-10-22T04:06:08;7.97;;;3.17;;
73524;SDS011;61776;56.194;44.160;2022-10-22T04:08:40;8.20;;;3.47;;
73524;SDS011;61776;56.194;44.160;2022-10-22T04:11:08;11.80;;;3.77;;
73524;SDS011;61776;56.194;44.160;2022-10-22T04:13:34;9.98;;;3.72;;
73524;SDS011;61776;56.194;44.160;2022-10-22T04:16:41;11.85;;;4.75;;
73524;SDS011;61776;56.194;44.160;2022-10-22T04:19:47;9.05;;;4.63;;
73524;SDS011;61776;56.194;44.160;2022-10-22T04:23:37;11.52;;;4.90;;
73524;SDS011;61776;56.194;44.160;2022-10-22T04:27:12;8.13;;;3.73;;
73524;SDS011;61776;56.194;44.160;2022-10-22T04:30:18;10.68;;;4.15;;
73524;SDS011;61776;56.194;44.160;2022-10-22T04:33:24;9.55;;;4.03;;
73524;SDS011;61776;56.194;44.160;2022-10-22T04:37:01;13.85;;;4.13;;
73524;SDS011;61776;56.194;44.160;2022-10-22T04:40:38;13.10;;;4.30;;
73524;SDS011;61776;56.194;44.160;2022-10-22T04:43:44;14.47;;;4.27;;
73524;SDS011;61776;56.194;44.160;2022-10-22T04:47:33;13.05;;;4.57;;
73524;SDS011;61776;56.194;44.160;2022-10-22T04:50:39;13.07;;;4.45;;
73524;SDS011;61776;56.194;44.160;2022-10-22T04:53:45;18.48;;;4.57;;
73524;SDS011;61776;56.194;44.160;2022-10-22T05:08:54;11.75;;;4.50;;
73524;SDS011;61776;56.194;44.160;2022-10-22T05:12:01;15.30;;;4.20;;
73524;SDS011;61776;56.194;44.160;2022-10-22T05:15:39;8.45;;;4.00;;
73524;SDS011;61776;56.194;44.160;2022-10-22T05:19:16;11.60;;;4.10;;
73524;SDS011;61776;56.194;44.160;2022-10-22T05:22:20;9.10;;;4.20;;
73524;SDS011;61776;56.194;44.160;2022-10-22T05:26:00;10.70;;;3.88;;
73524;SDS011;61776;56.194;44.160;2022-10-22T05:29:02;13.40;;;4.53;;
73524;SDS011;61776;56.194;44.160;2022-10-22T05:32:39;13.70;;;4.25;;
73524;SDS011;61776;56.194;44.160;2022-10-22T05:35:47;13.73;;;4.00;;
73524;SDS011;61776;56.194;44.160;2022-10-22T05:38:52;14.25;;;4.35;;
73524;SDS011;61776;56.194;44.160;2022-10-22T05:42:03;15.50;;;4.60;;
73524;SDS011;61776;56.194;44.160;2022-10-22T05:45:40;10.65;;;3.45;;
73524;SDS011;61776;56.194;44.160;2022-10-22T05:49:06;9.07;;;3.63;;
73524;SDS011;61776;56.194;44.160;2022-10-22T05:51:54;16.17;;;4.30;;
73524;SDS011;61776;56.194;44.160;2022-10-22T05:55:02;11.77;;;4.07;;
73524;SDS011;61776;56.194;44.160;2022-10-22T05:58:08;12.13;;;3.80;;
73524;SDS011;61776;56.194;44.160;2022-10-22T06:01:18;13.15;;;4.40;;
73524;SDS011;61776;56.194;44.160;2022-10-22T06:04:23;8.88;;;3.72;;
